Terminal Aerodrome Forecast
Issued by NWS Pocatello, ID

Current Version | Previous Version | Text Only | Print | Product List | Glossary On
Versions: 1 2 3 4 5 6 7 8 9 10 11 12 13 14 15 16
845
FTUS45 KPIH 192323
TAFPIH
TAF
KPIH 192323Z 2000/2024 VRB05KT P6SM BKN250 WS005/16025KT
     FM201200 18011KT P6SM VCSH BKN100
     FM202000 21014G24KT P6SM -SHRA BKN030 OVC040=

USA.gov is the U.S. government's official web portal to all federal, state and local government web resources and services.